Time;durP1;ratioP1;P1;durP2;ratioP2;P2;SDS_P1;SDS_P2;PMS_P1;PMS_P2;Temp;Humidity;BMP_temperature;BMP_pressure;BME280_temperature;BME280_humidity;BME280_pressure;Samples;Min_cycle;Max_cycle;Signal;HPM_P1;HPM_P2
2023/04/25 00:01:12;;;;;;;12.07;9.48;;;;;;;8.52;65.77;99262.91;10393600;28;20067;-60
2023/04/25 00:06:14;;;;;;;15.77;9.57;;;;;;;8.54;65.82;99270.63;10388528;28;20535;-60
2023/04/25 00:11:16;;;;;;;18.25;10.60;;;;;;;8.43;65.90;99275.63;10389707;28;20450;-60
2023/04/25 00:16:18;;;;;;;14.60;10.35;;;;;;;8.42;66.05;99268.75;10391062;28;20061;-60
2023/04/25 00:21:21;;;;;;;12.88;10.63;;;;;;;8.41;66.01;99267.06;10389823;28;20045;-60
2023/04/25 00:26:22;;;;;;;13.88;10.82;;;;;;;8.32;66.34;99272.88;10389584;28;20063;-60
2023/04/25 00:31:24;;;;;;;14.35;10.93;;;;;;;8.21;66.62;99275.28;10389674;28;20046;-60
2023/04/25 00:36:27;;;;;;;14.90;10.93;;;;;;;7.99;67.04;99281.75;10393356;28;20103;-59
2023/04/25 00:41:30;;;;;;;16.08;11.88;;;;;;;7.87;67.30;99274.66;10375206;28;20053;-59
2023/04/25 00:46:32;;;;;;;18.25;11.70;;;;;;;7.83;67.38;99267.94;10393739;28;20045;-59
2023/04/25 00:51:34;;;;;;;18.00;11.27;;;;;;;7.87;67.30;99266.84;10390891;28;20156;-59
2023/04/25 00:56:37;;;;;;;18.63;10.80;;;;;;;7.88;67.12;99271.13;10389379;28;20710;-58
2023/04/25 01:01:39;;;;;;;17.88;10.23;;;;;;;8.00;66.43;99267.78;10358082;28;20042;-59
2023/04/25 01:06:41;;;;;;;18.10;11.88;;;;;;;7.86;66.74;99257.34;10378961;28;20453;-59
2023/04/25 01:11:43;;;;;;;17.92;11.30;;;;;;;7.75;66.60;99261.53;10371455;28;20052;-59
2023/04/25 01:16:45;;;;;;;14.93;11.52;;;;;;;7.68;67.02;99261.03;10387503;28;20053;-60
2023/04/25 01:21:47;;;;;;;14.15;10.73;;;;;;;7.64;67.10;99253.50;10389588;28;20428;-60
2023/04/25 01:26:50;;;;;;;20.02;10.55;;;;;;;7.58;67.06;99257.31;10387808;28;20436;-60
2023/04/25 01:31:58;;;;;;;18.08;10.38;;;;;;;7.46;66.99;99260.63;10372195;28;20341;-59
2023/04/25 01:37:01;;;;;;;14.23;9.40;;;;;;;7.46;66.52;99262.38;10372954;28;20060;-59
2023/04/25 01:42:03;;;;;;;13.65;9.13;;;;;;;7.39;66.00;99269.69;10390385;28;20489;-59
2023/04/25 01:47:05;;;;;;;12.95;8.82;;;;;;;7.23;65.99;99274.09;10385096;28;20045;-59
2023/04/25 01:52:07;;;;;;;13.60;8.38;;;;;;;7.10;65.92;99273.13;10402852;28;20308;-59
2023/04/25 01:57:11;;;;;;;15.00;8.88;;;;;;;7.02;65.90;99289.13;10384519;28;20140;-59
2023/04/25 02:02:15;;;;;;;14.02;6.97;;;;;;;6.92;65.38;99276.72;10372961;28;20045;-59
2023/04/25 02:07:18;;;;;;;16.90;6.72;;;;;;;6.95;64.94;99284.34;10386410;28;20081;-59
2023/04/25 02:12:27;;;;;;;14.70;5.85;;;;;;;6.85;64.51;99278.00;10390088;28;20048;-59
2023/04/25 02:17:29;;;;;;;14.48;6.00;;;;;;;6.80;64.18;99282.59;10394102;28;20233;-60
2023/04/25 02:22:31;;;;;;;8.75;5.18;;;;;;;6.69;63.95;99284.94;10376027;28;20045;-59
2023/04/25 02:27:33;;;;;;;13.65;6.18;;;;;;;6.60;63.85;99278.47;10394364;28;20038;-60
2023/04/25 02:32:35;;;;;;;18.60;5.50;;;;;;;6.60;63.65;99283.69;10375167;28;20508;-59
2023/04/25 02:37:38;;;;;;;14.95;5.80;;;;;;;6.49;63.52;99282.59;10378691;28;20033;-60
2023/04/25 02:42:40;;;;;;;12.05;4.90;;;;;;;6.40;63.31;99285.66;10384108;28;20045;-60
2023/04/25 02:47:42;;;;;;;16.98;5.93;;;;;;;6.38;63.44;99284.91;10405448;28;20063;-59
2023/04/25 02:52:45;;;;;;;12.98;4.97;;;;;;;6.20;63.38;99287.53;10385815;28;20041;-60
2023/04/25 02:57:52;;;;;;;10.95;5.25;;;;;;;6.21;63.67;99283.16;10385520;28;20042;-60
2023/04/25 03:03:05;;;;;;;11.52;5.18;;;;;;;6.19;63.55;99295.38;10379572;28;20052;-59
2023/04/25 03:08:07;;;;;;;15.13;5.70;;;;;;;6.17;63.69;99295.47;10409332;28;20041;-60
2023/04/25 03:13:11;;;;;;;12.57;5.05;;;;;;;6.16;63.21;99298.16;10387972;28;20409;-60
2023/04/25 03:18:16;;;;;;;14.45;5.05;;;;;;;6.15;63.41;99302.50;10375651;28;20457;-59
2023/04/25 03:23:18;;;;;;;15.38;5.38;;;;;;;6.18;63.21;99297.16;10378705;28;20507;-60
2023/04/25 03:28:22;;;;;;;14.45;5.40;;;;;;;6.15;63.54;99301.63;10390578;28;20134;-60
2023/04/25 03:33:24;;;;;;;16.02;6.22;;;;;;;6.18;63.19;99298.91;10374826;28;20502;-59
2023/04/25 03:38:26;;;;;;;13.07;5.78;;;;;;;6.19;63.31;99301.41;10375519;28;20056;-59
2023/04/25 03:43:28;;;;;;;17.02;6.30;;;;;;;6.20;63.17;99308.28;10379811;28;20886;-58
2023/04/25 03:48:38;;;;;;;13.88;5.95;;;;;;;6.18;63.15;99307.53;10374922;28;20110;-58
2023/04/25 03:53:41;;;;;;;16.45;6.68;;;;;;;6.18;63.24;99315.31;10376195;28;20580;-58
2023/04/25 03:58:49;;;;;;;20.15;6.90;;;;;;;6.16;63.33;99314.56;10393959;28;20046;-59
2023/04/25 04:03:53;;;;;;;13.35;6.85;;;;;;;6.14;63.57;99316.38;10388385;28;20056;-59
2023/04/25 04:08:56;;;;;;;15.43;6.90;;;;;;;6.02;63.53;99319.59;10388933;28;20038;-59
2023/04/25 04:13:58;;;;;;;17.15;8.70;;;;;;;5.86;63.98;99326.47;10375030;28;20049;-60
2023/04/25 04:19:02;;;;;;;17.65;7.97;;;;;;;5.79;64.16;99321.69;10390860;28;20112;-60
2023/04/25 04:24:05;;;;;;;26.27;7.88;;;;;;;5.82;64.12;99321.53;10392859;28;20476;-60
2023/04/25 04:29:22;;;;;;;22.45;8.25;;;;;;;5.85;64.11;99324.81;10382242;28;20759;-60
2023/04/25 04:34:39;;;;;;;18.60;8.20;;;;;;;5.97;63.88;99331.97;10373578;28;20056;-60
2023/04/25 04:39:41;;;;;;;22.60;8.25;;;;;;;6.04;63.82;99335.94;10391911;28;20501;-60
2023/04/25 04:44:58;;;;;;;20.15;8.48;;;;;;;6.17;63.81;99342.19;10379827;28;20049;-60
2023/04/25 04:50:20;;;;;;;20.95;7.38;;;;;;;6.53;62.97;99342.06;10393968;28;20041;-60
2023/04/25 04:55:41;;;;;;;14.10;7.70;;;;;;;6.83;62.23;99345.66;10390773;28;20505;-60
2023/04/25 05:01:01;;;;;;;;;;;;;;;6.76;62.36;99356.44;10395168;28;20505;-60
2023/04/25 05:06:22;;;;;;;16.55;7.72;;;;;;;7.43;61.00;99354.44;10386325;28;19925;-60
2023/04/25 05:11:44;;;;;;;16.92;7.03;;;;;;;7.72;60.14;99360.59;10394019;28;20054;-60
2023/04/25 05:17:08;;;;;;;20.55;6.93;;;;;;;7.76;59.75;99362.94;10393503;28;20405;-61
2023/04/25 05:22:37;;;;;;;20.42;7.53;;;;;;;7.78;59.66;99357.63;10381564;28;20061;-60
2023/04/25 05:27:53;;;;;;;16.63;6.60;;;;;;;7.83;59.47;99371.25;10374388;28;20045;-60
2023/04/25 05:33:12;;;;;;;14.13;6.10;;;;;;;8.18;59.30;99377.88;10402965;28;20081;-61
2023/04/25 05:38:15;;;;;;;18.52;6.53;;;;;;;8.52;58.56;99377.56;10392437;28;20079;-61
2023/04/25 05:43:36;;;;;;;15.93;6.07;;;;;;;8.54;57.87;99387.88;10414533;28;20497;-62
2023/04/25 05:48:55;;;;;;;18.02;6.13;;;;;;;8.77;57.41;99384.75;10393641;28;20142;-61
2023/04/25 05:54:11;;;;;;;14.73;5.80;;;;;;;9.00;56.29;99376.31;10366610;28;20053;-61
2023/04/25 05:59:14;;;;;;;15.70;5.32;;;;;;;9.20;55.93;99383.75;10409124;28;20156;-61
2023/04/25 06:04:15;;;;;;;12.85;5.05;;;;;;;9.37;55.50;99386.13;10406743;28;20120;-61
2023/04/25 06:09:18;;;;;;;16.83;4.30;;;;;;;9.18;55.00;99377.78;10391060;28;20221;-62
2023/04/25 06:14:20;;;;;;;12.80;4.03;;;;;;;9.45;54.80;99386.50;10388488;28;20152;-62
2023/04/25 06:19:23;;;;;;;13.55;4.40;;;;;;;9.76;53.60;99374.94;10368047;28;20081;-61
2023/04/25 06:24:26;;;;;;;10.70;3.60;;;;;;;10.13;53.17;99381.19;10400127;28;20641;-62
2023/04/25 06:29:28;;;;;;;13.85;3.97;;;;;;;10.34;52.53;99391.03;10370320;28;20046;-61
2023/04/25 06:34:30;;;;;;;11.68;3.40;;;;;;;10.58;52.19;99387.72;10365718;28;20049;-61
2023/04/25 06:39:33;;;;;;;8.70;3.25;;;;;;;10.49;51.84;99390.03;10412906;28;20064;-61
2023/04/25 06:44:35;;;;;;;9.00;3.50;;;;;;;10.49;51.58;99402.25;10401653;28;20547;-62
2023/04/25 06:49:40;;;;;;;9.80;3.28;;;;;;;10.10;51.95;99404.91;10364458;28;20099;-61
2023/04/25 06:54:44;;;;;;;9.23;3.40;;;;;;;9.77;52.04;99407.94;10377072;28;20120;-62
2023/04/25 07:00:09;;;;;;;8.75;3.40;;;;;;;9.40;53.10;99421.66;10410288;28;20057;-61
2023/04/25 07:05:11;;;;;;;14.27;5.00;;;;;;;9.28;52.70;99432.84;10377801;28;20136;-61
2023/04/25 07:10:15;;;;;;;14.13;5.15;;;;;;;9.20;53.51;99437.72;10372854;28;20917;-61
2023/04/25 07:15:17;;;;;;;12.90;5.28;;;;;;;8.86;53.35;99436.31;10384370;28;20136;-61
2023/04/25 07:20:22;;;;;;;12.90;5.78;;;;;;;9.02;53.33;99451.84;10375430;28;20045;-61
2023/04/25 07:25:24;;;;;;;13.23;5.50;;;;;;;8.88;53.54;99457.91;10371785;28;20144;-61
2023/04/25 07:30:27;;;;;;;12.27;5.30;;;;;;;9.09;52.74;99461.00;10415914;28;20135;-61
2023/04/25 07:35:29;;;;;;;12.07;5.22;;;;;;;9.53;52.45;99454.72;10396298;28;20505;-61
2023/04/25 07:40:31;;;;;;;11.82;5.38;;;;;;;9.83;51.41;99454.56;10396184;28;20060;-61
2023/04/25 07:45:39;;;;;;;12.15;6.45;;;;;;;10.08;51.37;99467.72;10383106;28;20040;-61
2023/04/25 07:50:45;;;;;;;11.27;6.45;;;;;;;10.71;50.01;99461.75;10393374;28;20051;-61
2023/04/25 07:55:46;;;;;;;13.18;7.22;;;;;;;11.22;48.98;99453.84;10379128;28;20053;-61
2023/04/25 08:00:51;;;;;;;10.18;5.78;;;;;;;11.32;47.40;99460.09;10395228;28;20802;-61
2023/04/25 08:06:11;;;;;;;12.52;6.10;;;;;;;11.01;47.57;99473.59;10397110;28;20065;-61
2023/04/25 08:11:37;;;;;;;10.10;5.75;;;;;;;11.97;46.74;99471.09;10395587;28;20053;-61
2023/04/25 08:16:40;;;;;;;11.27;5.55;;;;;;;11.97;45.37;99472.88;10397898;28;20228;-61
2023/04/25 08:21:42;;;;;;;12.88;5.55;;;;;;;12.25;44.29;99482.19;10413517;28;20709;-61
2023/04/25 08:26:49;;;;;;;11.00;5.80;;;;;;;12.39;44.75;99482.91;10413346;28;20408;-61
2023/04/25 08:31:54;;;;;;;14.40;6.57;;;;;;;12.19;44.62;99487.91;10392875;28;20041;-61
2023/04/25 08:36:56;;;;;;;15.00;6.30;;;;;;;11.69;45.05;99500.22;10405856;28;20060;-61
2023/04/25 08:42:21;;;;;;;13.32;5.97;;;;;;;11.59;45.05;99498.38;10417456;28;20410;-61
2023/04/25 08:47:26;;;;;;;11.48;4.80;;;;;;;11.75;43.11;99505.03;10395783;28;20401;-61
2023/04/25 08:52:35;;;;;;;10.52;5.07;;;;;;;11.58;43.70;99509.81;10427115;28;20052;-61
2023/04/25 08:57:39;;;;;;;11.88;5.25;;;;;;;11.73;43.66;99521.81;10385273;28;20057;-61
2023/04/25 09:02:43;;;;;;;11.85;4.65;;;;;;;12.81;42.19;99511.16;10371334;28;20045;-60
2023/04/25 09:07:46;;;;;;;13.13;4.85;;;;;;;13.78;40.70;99517.56;10411961;28;20056;-61
2023/04/25 09:13:06;;;;;;;11.07;4.68;;;;;;;13.35;39.28;99526.28;10371305;28;20056;-61
2023/04/25 09:18:33;;;;;;;12.57;4.90;;;;;;;12.56;40.24;99540.16;10409503;28;20583;-61
2023/04/25 09:23:44;;;;;;;11.48;4.82;;;;;;;12.08;41.90;99546.34;10385157;28;20052;-61
2023/04/25 09:28:49;;;;;;;11.25;4.50;;;;;;;12.52;41.68;99553.59;10407963;28;20049;-61
2023/04/25 09:34:01;;;;;;;9.60;3.60;;;;;;;12.59;38.33;99554.84;10414657;28;20072;-61
2023/04/25 09:39:19;;;;;;;9.40;3.60;;;;;;;12.42;41.00;99555.25;10396272;28;20057;-61
2023/04/25 09:44:29;;;;;;;11.43;3.40;;;;;;;12.17;40.43;99566.66;10369720;28;20430;-61
2023/04/25 09:49:31;;;;;;;8.55;3.15;;;;;;;11.64;40.88;99580.91;10418457;28;20059;-61
2023/04/25 09:54:40;;;;;;;9.65;3.05;;;;;;;11.30;40.45;99585.03;10407837;28;20413;-61
2023/04/25 09:59:47;;;;;;;9.82;2.95;;;;;;;11.52;40.44;99601.91;10366255;28;20057;-60
2023/04/25 10:04:52;;;;;;;10.65;3.25;;;;;;;11.58;40.20;99599.66;10408923;28;20041;-60
2023/04/25 10:10:05;;;;;;;8.13;2.88;;;;;;;12.17;39.97;99599.91;10402696;28;20140;-60
2023/04/25 10:15:08;;;;;;;9.90;3.17;;;;;;;11.96;39.86;99597.00;10412720;28;20501;-61
2023/04/25 10:20:11;;;;;;;11.60;3.75;;;;;;;11.78;40.65;99611.41;10424831;28;20045;-60
2023/04/25 10:25:14;;;;;;;9.40;3.25;;;;;;;12.08;40.32;99610.09;10389947;28;20053;-61
2023/04/25 10:30:16;;;;;;;10.88;3.28;;;;;;;12.17;40.00;99603.38;10410557;28;20333;-61
2023/04/25 10:35:24;;;;;;;9.60;3.10;;;;;;;12.56;39.58;99605.75;10381725;28;20462;-61
2023/04/25 10:40:26;;;;;;;11.13;2.92;;;;;;;12.84;37.95;99600.13;10409598;28;20049;-62
2023/04/25 10:45:28;;;;;;;8.43;2.70;;;;;;;13.06;38.10;99602.00;10401269;28;20131;-61
2023/04/25 10:50:38;;;;;;;10.70;2.85;;;;;;;12.97;36.54;99615.81;10385203;28;20474;-61
2023/04/25 10:55:51;;;;;;;8.25;2.53;;;;;;;13.26;36.22;99608.38;10397760;28;20577;-61
2023/04/25 11:00:53;;;;;;;9.27;2.75;;;;;;;13.51;36.66;99614.31;10394670;28;20571;-61
2023/04/25 11:06:01;;;;;;;8.48;2.70;;;;;;;13.52;36.01;99610.72;10421516;28;20056;-61
2023/04/25 11:11:04;;;;;;;10.35;2.97;;;;;;;13.10;35.98;99613.97;10412669;28;20050;-62
2023/04/25 11:16:09;;;;;;;10.38;3.28;;;;;;;12.49;37.44;99630.75;10416271;28;20041;-61
2023/04/25 11:21:14;;;;;;;10.18;3.33;;;;;;;12.50;38.36;99636.81;10418927;28;20058;-62
2023/04/25 11:26:16;;;;;;;12.23;3.50;;;;;;;12.49;38.79;99648.28;10428769;28;20414;-62
2023/04/25 11:31:21;;;;;;;12.32;2.78;;;;;;;11.97;37.91;99657.19;10414360;28;20049;-62
2023/04/25 11:36:24;;;;;;;11.63;3.30;;;;;;;11.62;39.39;99663.19;10433227;28;20281;-62
2023/04/25 11:41:26;;;;;;;11.40;2.85;;;;;;;11.90;39.53;99662.97;10411447;28;20489;-63
2023/04/25 11:46:27;;;;;;;11.05;3.03;;;;;;;12.45;38.56;99650.28;10414073;28;20049;-62
2023/04/25 11:51:30;;;;;;;11.60;3.58;;;;;;;12.64;38.19;99640.13;10392276;28;20521;-63
2023/04/25 11:56:33;;;;;;;10.05;3.47;;;;;;;13.09;37.40;99643.78;10392703;28;20076;-60
2023/04/25 12:01:37;;;;;;;11.77;3.25;;;;;;;12.82;36.52;99636.16;10404279;28;20142;-61
2023/04/25 12:06:41;;;;;;;11.43;3.13;;;;;;;13.06;37.16;99635.31;10388271;28;20045;-62
2023/04/25 12:11:55;;;;;;;10.45;3.10;;;;;;;12.56;36.22;99633.75;10392263;28;20057;-62
2023/04/25 12:17:01;;;;;;;14.40;3.30;;;;;;;12.90;37.14;99652.16;10397391;28;20056;-62
2023/04/25 12:22:19;;;;;;;9.10;3.05;;;;;;;13.28;35.55;99651.13;10385299;28;20041;-62
2023/04/25 12:27:20;;;;;;;9.07;2.60;;;;;;;13.27;35.50;99649.47;10396358;28;20128;-62
2023/04/25 12:32:26;;;;;;;10.27;3.00;;;;;;;13.35;35.28;99654.97;10387885;28;20033;-60
2023/04/25 12:37:28;;;;;;;9.32;2.58;;;;;;;13.10;35.56;99663.00;10392653;28;20041;-61
2023/04/25 12:42:30;;;;;;;9.45;3.00;;;;;;;12.77;36.07;99664.53;10391630;28;20049;-61
2023/04/25 12:47:35;;;;;;;11.32;2.67;;;;;;;13.06;35.23;99664.19;10392068;28;20063;-61
2023/04/25 12:52:37;;;;;;;8.98;2.80;;;;;;;13.26;35.23;99663.53;10395349;28;20041;-62
2023/04/25 12:57:40;;;;;;;7.25;2.53;;;;;;;13.06;35.38;99667.66;10388738;28;20471;-62
2023/04/25 13:02:44;;;;;;;6.65;2.58;;;;;;;12.99;35.42;99663.78;10408420;28;20260;-62
2023/04/25 13:07:48;;;;;;;5.50;2.15;;;;;;;13.08;34.68;99667.53;10409691;28;20075;-62
2023/04/25 13:12:51;;;;;;;7.32;2.20;;;;;;;12.89;34.42;99662.78;10406697;28;20133;-61
2023/04/25 13:17:53;;;;;;;11.60;2.78;;;;;;;13.40;33.96;99665.94;10409119;28;20049;-61
2023/04/25 13:22:55;;;;;;;12.50;2.42;;;;;;;13.51;33.79;99663.41;10414430;28;20332;-62
2023/04/25 13:27:57;;;;;;;9.32;2.40;;;;;;;13.15;33.34;99674.00;10397828;28;20045;-62
2023/04/25 13:33:02;;;;;;;9.32;2.63;;;;;;;12.87;35.29;99683.06;10377371;28;20060;-62
2023/04/25 13:38:08;;;;;;;9.95;2.95;;;;;;;12.49;35.44;99696.34;10385078;28;20143;-61
2023/04/25 13:43:10;;;;;;;9.75;2.72;;;;;;;11.95;36.62;99710.63;10403977;28;20743;-61
2023/04/25 13:48:12;;;;;;;14.10;2.85;;;;;;;11.39;37.60;99713.63;10400723;28;20519;-61
2023/04/25 13:53:14;;;;;;;8.63;2.60;;;;;;;11.29;38.77;99716.03;10385510;28;20048;-61
2023/04/25 13:58:16;;;;;;;12.20;2.90;;;;;;;11.23;39.00;99719.88;10388499;28;20056;-61
2023/04/25 14:03:20;;;;;;;9.32;2.85;;;;;;;11.38;38.80;99712.78;10413372;28;20049;-61
2023/04/25 14:08:22;;;;;;;9.93;2.92;;;;;;;11.53;38.75;99716.16;10368549;28;20437;-61
2023/04/25 14:13:24;;;;;;;8.88;2.65;;;;;;;12.13;37.62;99714.59;10396010;28;20421;-62
2023/04/25 14:18:26;;;;;;;8.80;2.60;;;;;;;12.26;36.15;99718.06;10401739;28;20797;-61
2023/04/25 14:23:28;;;;;;;8.15;2.42;;;;;;;12.71;35.75;99712.22;10395580;28;20049;-62
2023/04/25 14:28:30;;;;;;;10.52;2.35;;;;;;;12.85;35.34;99712.06;10383965;28;20067;-62
2023/04/25 14:33:34;;;;;;;10.15;2.50;;;;;;;12.92;34.96;99708.03;10388837;28;20096;-60
2023/04/25 14:38:37;;;;;;;9.48;2.58;;;;;;;12.96;35.33;99716.53;10384274;28;20053;-62
2023/04/25 14:43:42;;;;;;;9.80;2.25;;;;;;;13.00;34.90;99712.72;10394066;28;20428;-62
2023/04/25 14:48:44;;;;;;;8.30;2.00;;;;;;;13.00;34.65;99712.72;10373952;28;20141;-62
2023/04/25 14:53:46;;;;;;;9.73;2.55;;;;;;;12.98;34.63;99714.63;10382017;28;20175;-61
2023/04/25 14:58:48;;;;;;;6.93;2.10;;;;;;;12.80;34.45;99711.53;10383014;28;20045;-61
2023/04/25 15:03:50;;;;;;;11.45;2.47;;;;;;;12.70;34.82;99707.09;10392983;28;20213;-61
2023/04/25 15:08:55;;;;;;;6.43;2.28;;;;;;;12.65;34.21;99711.81;10390393;28;20054;-61
2023/04/25 15:13:57;;;;;;;8.57;2.20;;;;;;;12.68;33.56;99707.16;10381956;28;20135;-61
2023/04/25 15:18:58;;;;;;;9.68;2.50;;;;;;;12.35;34.48;99714.84;10389907;28;20057;-61
2023/04/25 15:24:01;;;;;;;10.63;2.47;;;;;;;12.21;34.59;99725.41;10380419;28;20037;-61
2023/04/25 15:29:03;;;;;;;6.78;2.10;;;;;;;11.94;34.62;99725.53;10368121;28;20136;-61
2023/04/25 15:34:07;;;;;;;7.13;1.98;;;;;;;11.74;35.14;99728.69;10414169;28;20192;-63
2023/04/25 15:39:08;;;;;;;9.45;2.65;;;;;;;11.38;34.75;99731.13;10390740;28;20568;-62
2023/04/25 15:44:10;;;;;;;6.60;2.10;;;;;;;11.47;34.87;99737.53;10412092;28;20072;-62
2023/04/25 15:49:12;;;;;;;8.55;2.28;;;;;;;11.78;34.31;99737.16;10409749;28;20073;-62
2023/04/25 15:54:14;;;;;;;8.45;2.42;;;;;;;12.07;33.97;99736.00;10390430;28;20077;-61
2023/04/25 15:59:16;;;;;;;6.00;1.90;;;;;;;12.12;34.37;99741.78;10386485;28;20045;-62
2023/04/25 16:04:18;;;;;;;7.38;2.10;;;;;;;11.67;35.62;99742.28;10387669;28;20064;-62
2023/04/25 16:09:21;;;;;;;7.18;2.10;;;;;;;11.47;35.26;99742.78;10390741;28;20051;-61
2023/04/25 16:14:23;;;;;;;8.68;1.95;;;;;;;11.55;34.92;99749.19;10400561;28;20706;-62
2023/04/25 16:19:24;;;;;;;9.27;1.90;;;;;;;11.54;36.38;99747.50;10395525;28;20146;-61
2023/04/25 16:24:26;;;;;;;9.52;2.35;;;;;;;11.60;35.19;99751.50;10410057;28;20037;-62
2023/04/25 16:29:28;;;;;;;5.72;2.05;;;;;;;11.49;35.24;99756.59;10393088;28;20045;-62
2023/04/25 16:34:30;;;;;;;10.13;1.98;;;;;;;11.39;35.17;99761.63;10426582;28;20509;-62
2023/04/25 16:39:32;;;;;;;7.03;2.00;;;;;;;11.49;34.85;99760.06;10390692;28;20466;-62
2023/04/25 16:44:34;;;;;;;4.78;1.70;;;;;;;11.25;33.00;99764.28;10389536;28;20045;-61
2023/04/25 16:49:38;;;;;;;7.00;2.10;;;;;;;11.61;33.53;99763.63;10390785;28;20041;-62
2023/04/25 16:54:39;;;;;;;5.95;2.00;;;;;;;11.91;32.59;99764.19;10389510;28;20788;-62
2023/04/25 16:59:41;;;;;;;6.93;2.10;;;;;;;11.92;32.57;99756.25;10385805;28;20116;-62
2023/04/25 17:04:43;;;;;;;4.40;1.92;;;;;;;11.81;32.67;99766.63;10389664;28;20041;-62
2023/04/25 17:09:45;;;;;;;7.22;1.88;;;;;;;11.44;33.44;99769.19;10390495;28;20042;-62
2023/04/25 17:14:48;;;;;;;7.20;2.10;;;;;;;11.25;34.31;99772.97;10392647;28;20068;-62
2023/04/25 17:19:52;;;;;;;7.32;1.70;;;;;;;10.96;34.88;99789.69;10392036;28;20056;-62
2023/04/25 17:24:56;;;;;;;9.10;2.15;;;;;;;10.82;35.30;99791.50;10384452;28;20265;-62
2023/04/25 17:29:58;;;;;;;7.40;2.10;;;;;;;10.65;35.71;99795.16;10376092;28;20041;-62
2023/04/25 17:35:00;;;;;;;5.80;2.08;;;;;;;10.55;36.50;99811.50;10370509;28;20059;-62
2023/04/25 17:40:03;;;;;;;5.70;2.13;;;;;;;10.36;37.61;99822.22;10382936;28;20136;-61
2023/04/25 17:45:06;;;;;;;5.60;2.05;;;;;;;10.17;37.66;99826.91;10389405;28;20670;-62
2023/04/25 17:50:08;;;;;;;5.95;2.00;;;;;;;10.18;38.48;99823.34;10384311;28;20053;-62
2023/04/25 17:55:10;;;;;;;7.88;2.10;;;;;;;10.26;38.97;99828.94;10384180;28;20061;-62
2023/04/25 18:00:12;;;;;;;8.52;1.90;;;;;;;10.17;38.72;99827.75;10367931;28;20138;-62
2023/04/25 18:05:15;;;;;;;6.63;2.13;;;;;;;10.07;39.18;99828.38;10388278;28;20124;-62
2023/04/25 18:10:17;;;;;;;4.97;2.00;;;;;;;9.90;39.82;99834.59;10365981;28;20414;-62
2023/04/25 18:15:20;;;;;;;7.70;2.13;;;;;;;9.79;39.77;99846.59;10369940;28;20337;-62
2023/04/25 18:20:22;;;;;;;5.28;1.90;;;;;;;9.73;40.69;99846.97;10384376;28;20270;-61
2023/04/25 18:25:24;;;;;;;8.20;2.20;;;;;;;9.51;41.27;99853.38;10391609;28;20052;-61
2023/04/25 18:30:26;;;;;;;6.18;2.10;;;;;;;9.35;42.25;99860.38;10366969;28;20408;-61
2023/04/25 18:35:28;;;;;;;6.82;2.50;;;;;;;9.14;42.47;99877.22;10387563;28;20063;-61
2023/04/25 18:40:30;;;;;;;6.60;2.15;;;;;;;8.98;43.38;99884.19;10387579;28;20056;-61
2023/04/25 18:45:32;;;;;;;8.50;2.33;;;;;;;8.81;43.82;99886.88;10371634;28;20048;-61
2023/04/25 18:50:34;;;;;;;6.20;2.38;;;;;;;8.72;44.23;99895.16;10385151;28;20053;-61
2023/04/25 18:55:37;;;;;;;6.13;2.28;;;;;;;8.62;44.00;99892.22;10387714;28;20048;-61
2023/04/25 19:00:39;;;;;;;7.38;2.47;;;;;;;8.54;44.05;99903.94;10385089;28;20046;-61
2023/04/25 19:05:41;;;;;;;8.75;2.50;;;;;;;8.43;44.80;99917.53;10385792;28;20119;-61
2023/04/25 19:10:43;;;;;;;7.90;2.58;;;;;;;8.40;44.94;99925.53;10381104;28;20115;-61
2023/04/25 19:15:46;;;;;;;8.13;2.78;;;;;;;8.24;45.95;99926.38;10366072;28;20038;-61
2023/04/25 19:20:47;;;;;;;8.63;2.42;;;;;;;8.17;46.77;99931.03;10389224;28;20048;-61
2023/04/25 19:25:49;;;;;;;7.22;2.28;;;;;;;8.08;47.38;99933.22;10394743;28;20048;-61
2023/04/25 19:30:51;;;;;;;6.53;3.08;;;;;;;8.03;47.72;99933.44;10390227;28;20049;-61
2023/04/25 19:35:55;;;;;;;8.80;3.50;;;;;;;8.01;48.28;99940.50;10374364;28;20449;-61
2023/04/25 19:40:57;;;;;;;6.57;2.60;;;;;;;8.01;48.27;99930.94;10377102;28;20127;-61
2023/04/25 19:45:59;;;;;;;7.25;2.58;;;;;;;7.90;48.66;99933.19;10385629;28;20046;-61
2023/04/25 19:51:01;;;;;;;8.05;3.00;;;;;;;7.82;49.19;99945.75;10398976;28;20524;-61
2023/04/25 19:56:03;;;;;;;8.93;3.05;;;;;;;7.88;49.43;99947.22;10393474;28;20044;-61
2023/04/25 20:01:05;;;;;;;8.27;3.10;;;;;;;7.87;49.54;99948.13;10377521;28;20041;-61
2023/04/25 20:06:07;;;;;;;7.38;3.30;;;;;;;7.76;50.18;99951.25;10387276;28;20117;-62
2023/04/25 20:11:10;;;;;;;10.40;3.55;;;;;;;7.86;50.35;99952.50;10388662;28;20966;-61
2023/04/25 20:16:18;;;;;;;8.80;3.72;;;;;;;7.77;50.20;99955.53;10387033;28;20300;-61
2023/04/25 20:21:21;;;;;;;9.48;3.88;;;;;;;7.59;50.57;99956.41;10392495;28;20096;-61
2023/04/25 20:26:24;;;;;;;7.85;3.08;;;;;;;7.44;50.51;99964.94;10392684;28;20138;-61
2023/04/25 20:31:26;;;;;;;6.38;2.65;;;;;;;7.10;50.67;99970.81;10391307;28;20187;-60
2023/04/25 20:36:28;;;;;;;6.68;2.53;;;;;;;7.03;52.06;99985.03;10393418;28;20053;-60
2023/04/25 20:41:31;;;;;;;8.40;3.38;;;;;;;7.34;51.72;99983.66;10394961;28;20041;-60
2023/04/25 20:46:33;;;;;;;7.05;2.50;;;;;;;7.52;51.56;99983.66;10371697;28;20041;-61
2023/04/25 20:51:35;;;;;;;8.77;3.35;;;;;;;7.57;51.64;99978.25;10391670;28;20056;-61
2023/04/25 20:56:37;;;;;;;8.38;3.13;;;;;;;7.55;51.86;99980.88;10398736;28;20127;-60
2023/04/25 21:01:39;;;;;;;6.93;3.20;;;;;;;7.53;51.88;99977.50;10390068;28;20204;-60
2023/04/25 21:06:41;;;;;;;6.40;3.00;;;;;;;7.47;51.89;99976.97;10393132;28;20481;-61
2023/04/25 21:11:44;;;;;;;9.52;3.53;;;;;;;7.41;52.19;99975.47;10394675;28;20503;-61
2023/04/25 21:16:46;;;;;;;5.78;2.90;;;;;;;7.37;52.51;99981.75;10394523;28;20049;-60
2023/04/25 21:21:48;;;;;;;5.78;3.00;;;;;;;7.34;52.61;99979.28;10392974;28;20052;-60
2023/04/25 21:26:50;;;;;;;6.95;2.55;;;;;;;7.25;53.01;99977.09;10386989;28;20049;-59
2023/04/25 21:31:52;;;;;;;7.97;3.08;;;;;;;7.00;53.23;99982.56;10392045;28;20049;-60
2023/04/25 21:36:53;;;;;;;10.52;3.45;;;;;;;6.79;53.67;99980.06;10391083;28;20088;-60
2023/04/25 21:41:55;;;;;;;5.30;2.92;;;;;;;6.59;54.03;99988.72;10392590;28;20068;-60
2023/04/25 21:46:57;;;;;;;10.07;2.90;;;;;;;6.44;54.42;99986.75;10389705;28;20375;-60
2023/04/25 21:51:59;;;;;;;7.70;3.25;;;;;;;6.34;54.63;99991.50;10389398;28;20072;-59
2023/04/25 21:57:01;;;;;;;9.10;3.22;;;;;;;6.18;55.19;99995.63;10367836;28;20050;-59
2023/04/25 22:02:03;;;;;;;6.47;2.80;;;;;;;6.05;55.42;100006.53;10390049;28;20167;-59
2023/04/25 22:07:05;;;;;;;7.18;3.05;;;;;;;5.95;55.78;100008.66;10389589;28;20037;-59
2023/04/25 22:12:07;;;;;;;8.43;3.00;;;;;;;5.89;56.07;100015.84;10390893;28;20045;-59
2023/04/25 22:17:10;;;;;;;7.68;3.55;;;;;;;5.82;56.16;100029.97;10388641;28;20204;-59
2023/04/25 22:22:13;;;;;;;7.22;3.05;;;;;;;5.74;56.29;100026.84;10390382;28;20068;-59
2023/04/25 22:27:14;;;;;;;12.38;3.88;;;;;;;5.61;56.41;100031.63;10388861;28;20052;-59
2023/04/25 22:32:16;;;;;;;8.85;3.17;;;;;;;5.54;56.67;100031.03;10387838;28;20051;-60
2023/04/25 22:37:18;;;;;;;8.05;3.25;;;;;;;5.51;56.68;100049.28;10389035;28;20040;-60
2023/04/25 22:42:20;;;;;;;9.15;3.22;;;;;;;5.36;56.79;100057.66;10386663;28;20168;-60
2023/04/25 22:47:23;;;;;;;6.85;2.85;;;;;;;5.25;57.16;100064.94;10388964;28;20529;-60
2023/04/25 22:52:25;;;;;;;8.50;3.00;;;;;;;5.12;57.33;100070.63;10392123;28;20052;-60
2023/04/25 22:57:27;;;;;;;8.57;3.30;;;;;;;5.03;57.45;100069.22;10394460;28;20415;-60
2023/04/25 23:02:29;;;;;;;7.20;2.83;;;;;;;5.01;57.73;100072.75;10397380;28;20601;-60
2023/04/25 23:07:32;;;;;;;7.10;3.17;;;;;;;4.92;57.88;100075.66;10395996;28;20045;-60
2023/04/25 23:12:34;;;;;;;9.45;3.40;;;;;;;4.76;58.26;100074.50;10395941;28;20045;-60
2023/04/25 23:17:36;;;;;;;12.32;3.42;;;;;;;4.66;58.44;100079.13;10394178;28;20087;-60
2023/04/25 23:22:38;;;;;;;6.72;3.42;;;;;;;4.60;58.48;100075.00;10395044;28;20048;-60
2023/04/25 23:27:41;;;;;;;9.15;3.00;;;;;;;4.57;58.46;100080.31;10391215;28;20126;-60
2023/04/25 23:32:43;;;;;;;8.05;2.95;;;;;;;4.50;58.75;100077.94;10375481;28;20398;-61